sensor_id;sensor_type;location;lat;lon;timestamp;temperature;humidity
57660;DHT22;43485;45.680;15.702;2023-06-10T00:00:08;18.40;71.80
57660;DHT22;43485;45.680;15.702;2023-06-10T00:02:38;18.40;70.30
57660;DHT22;43485;45.680;15.702;2023-06-10T00:05:04;18.40;70.90
57660;DHT22;43485;45.680;15.702;2023-06-10T00:07:31;18.50;70.50
57660;DHT22;43485;45.680;15.702;2023-06-10T00:09:57;18.40;71.00
57660;DHT22;43485;45.680;15.702;2023-06-10T00:12:23;18.40;71.00
57660;DHT22;43485;45.680;15.702;2023-06-10T00:14:49;18.40;71.10
57660;DHT22;43485;45.680;15.702;2023-06-10T00:17:17;18.40;71.00
57660;DHT22;43485;45.680;15.702;2023-06-10T00:19:43;18.30;71.30
57660;DHT22;43485;45.680;15.702;2023-06-10T00:22:12;18.30;71.60
57660;DHT22;43485;45.680;15.702;2023-06-10T00:24:38;18.30;71.60
57660;DHT22;43485;45.680;15.702;2023-06-10T00:27:04;18.30;71.60
57660;DHT22;43485;45.680;15.702;2023-06-10T00:29:32;18.20;70.80
57660;DHT22;43485;45.680;15.702;2023-06-10T00:31:58;18.20;71.40
57660;DHT22;43485;45.680;15.702;2023-06-10T00:34:24;18.20;71.50
57660;DHT22;43485;45.680;15.702;2023-06-10T00:36:50;18.20;71.40
57660;DHT22;43485;45.680;15.702;2023-06-10T00:39:17;18.10;71.60
57660;DHT22;43485;45.680;15.702;2023-06-10T00:41:43;18.10;71.70
57660;DHT22;43485;45.680;15.702;2023-06-10T00:44:09;18.10;72.00
57660;DHT22;43485;45.680;15.702;2023-06-10T00:46:35;18.10;72.10
57660;DHT22;43485;45.680;15.702;2023-06-10T00:49:09;18.00;71.40
57660;DHT22;43485;45.680;15.702;2023-06-10T00:51:35;18.00;72.00
57660;DHT22;43485;45.680;15.702;2023-06-10T00:54:02;18.00;72.20
57660;DHT22;43485;45.680;15.702;2023-06-10T00:56:28;18.00;71.90
57660;DHT22;43485;45.680;15.702;2023-06-10T00:58:54;18.00;71.90
57660;DHT22;43485;45.680;15.702;2023-06-10T01:01:20;18.10;71.90
57660;DHT22;43485;45.680;15.702;2023-06-10T01:03:46;18.00;71.60
57660;DHT22;43485;45.680;15.702;2023-06-10T01:15:31;18.00;71.60
57660;DHT22;43485;45.680;15.702;2023-06-10T01:20:24;18.00;71.50
57660;DHT22;43485;45.680;15.702;2023-06-10T01:23:12;17.90;71.50
57660;DHT22;43485;45.680;15.702;2023-06-10T01:25:48;17.90;71.60
57660;DHT22;43485;45.680;15.702;2023-06-10T01:34:14;17.80;71.90
57660;DHT22;43485;45.680;15.702;2023-06-10T01:36:46;17.70;71.80
57660;DHT22;43485;45.680;15.702;2023-06-10T01:39:15;17.70;72.00
57660;DHT22;43485;45.680;15.702;2023-06-10T01:41:42;17.60;72.00
57660;DHT22;43485;45.680;15.702;2023-06-10T01:44:09;17.50;71.60
57660;DHT22;43485;45.680;15.702;2023-06-10T01:46:36;17.60;72.30
57660;DHT22;43485;45.680;15.702;2023-06-10T01:49:02;17.60;72.10
57660;DHT22;43485;45.680;15.702;2023-06-10T01:51:28;17.60;72.10
57660;DHT22;43485;45.680;15.702;2023-06-10T01:53:54;17.60;72.10
57660;DHT22;43485;45.680;15.702;2023-06-10T01:56:20;17.70;72.10
57660;DHT22;43485;45.680;15.702;2023-06-10T01:58:46;17.70;72.10
57660;DHT22;43485;45.680;15.702;2023-06-10T02:01:13;17.70;71.50
57660;DHT22;43485;45.680;15.702;2023-06-10T02:03:39;17.70;71.90
57660;DHT22;43485;45.680;15.702;2023-06-10T02:06:05;17.70;72.10
57660;DHT22;43485;45.680;15.702;2023-06-10T02:08:31;17.70;72.00
57660;DHT22;43485;45.680;15.702;2023-06-10T02:10:57;17.70;72.00
57660;DHT22;43485;45.680;15.702;2023-06-10T02:13:26;17.70;72.10
57660;DHT22;43485;45.680;15.702;2023-06-10T02:15:51;17.70;72.00
57660;DHT22;43485;45.680;15.702;2023-06-10T02:18:19;17.70;72.20
57660;DHT22;43485;45.680;15.702;2023-06-10T02:20:46;17.70;72.00
57660;DHT22;43485;45.680;15.702;2023-06-10T02:23:12;17.70;72.00
57660;DHT22;43485;45.680;15.702;2023-06-10T02:25:38;17.70;72.10
57660;DHT22;43485;45.680;15.702;2023-06-10T02:28:04;17.70;72.30
57660;DHT22;43485;45.680;15.702;2023-06-10T02:30:30;17.70;72.20
57660;DHT22;43485;45.680;15.702;2023-06-10T02:32:56;17.70;72.20
57660;DHT22;43485;45.680;15.702;2023-06-10T02:35:22;17.70;72.30
57660;DHT22;43485;45.680;15.702;2023-06-10T02:37:49;17.70;72.40
57660;DHT22;43485;45.680;15.702;2023-06-10T02:40:16;17.70;71.80
57660;DHT22;43485;45.680;15.702;2023-06-10T02:42:41;17.70;72.50
57660;DHT22;43485;45.680;15.702;2023-06-10T02:45:08;17.70;72.50
57660;DHT22;43485;45.680;15.702;2023-06-10T02:47:37;17.70;72.40
57660;DHT22;43485;45.680;15.702;2023-06-10T02:50:03;17.70;72.30
57660;DHT22;43485;45.680;15.702;2023-06-10T02:52:29;17.60;71.90
57660;DHT22;43485;45.680;15.702;2023-06-10T02:54:56;17.60;72.50
57660;DHT22;43485;45.680;15.702;2023-06-10T02:57:22;17.50;72.40
57660;DHT22;43485;45.680;15.702;2023-06-10T02:59:48;17.40;72.20
57660;DHT22;43485;45.680;15.702;2023-06-10T03:02:14;17.40;72.90
57660;DHT22;43485;45.680;15.702;2023-06-10T03:04:41;17.30;71.90
57660;DHT22;43485;45.680;15.702;2023-06-10T03:07:09;17.30;71.80
57660;DHT22;43485;45.680;15.702;2023-06-10T03:09:36;17.30;71.50
57660;DHT22;43485;45.680;15.702;2023-06-10T03:12:02;17.30;71.50
57660;DHT22;43485;45.680;15.702;2023-06-10T03:14:28;17.30;71.00
57660;DHT22;43485;45.680;15.702;2023-06-10T03:16:54;17.30;71.70
57660;DHT22;43485;45.680;15.702;2023-06-10T03:19:21;17.40;71.80
57660;DHT22;43485;45.680;15.702;2023-06-10T03:21:49;17.40;71.70
57660;DHT22;43485;45.680;15.702;2023-06-10T03:24:15;17.40;71.50
57660;DHT22;43485;45.680;15.702;2023-06-10T03:26:41;17.30;71.80
57660;DHT22;43485;45.680;15.702;2023-06-10T03:29:07;17.30;71.80
57660;DHT22;43485;45.680;15.702;2023-06-10T03:31:33;17.30;71.80
57660;DHT22;43485;45.680;15.702;2023-06-10T03:34:02;17.30;71.70
57660;DHT22;43485;45.680;15.702;2023-06-10T03:36:28;17.30;72.00
57660;DHT22;43485;45.680;15.702;2023-06-10T03:38:54;17.30;72.00
57660;DHT22;43485;45.680;15.702;2023-06-10T03:41:22;17.30;72.00
57660;DHT22;43485;45.680;15.702;2023-06-10T03:43:48;17.30;72.10
57660;DHT22;43485;45.680;15.702;2023-06-10T03:46:14;17.30;72.00
57660;DHT22;43485;45.680;15.702;2023-06-10T03:49:00;17.40;72.10
57660;DHT22;43485;45.680;15.702;2023-06-10T03:51:26;17.30;71.80
57660;DHT22;43485;45.680;15.702;2023-06-10T03:53:52;17.30;71.60
57660;DHT22;43485;45.680;15.702;2023-06-10T03:56:18;17.30;71.30
57660;DHT22;43485;45.680;15.702;2023-06-10T03:58:44;17.30;72.00
57660;DHT22;43485;45.680;15.702;2023-06-10T04:01:10;17.40;71.80
57660;DHT22;43485;45.680;15.702;2023-06-10T04:03:38;17.30;71.70
57660;DHT22;43485;45.680;15.702;2023-06-10T04:06:07;17.20;71.70
57660;DHT22;43485;45.680;15.702;2023-06-10T04:08:33;17.20;71.80
57660;DHT22;43485;45.680;15.702;2023-06-10T04:10:59;17.20;72.20
57660;DHT22;43485;45.680;15.702;2023-06-10T04:13:25;17.20;71.60
57660;DHT22;43485;45.680;15.702;2023-06-10T04:15:51;17.20;71.90
57660;DHT22;43485;45.680;15.702;2023-06-10T04:18:17;17.30;71.90
57660;DHT22;43485;45.680;15.702;2023-06-10T04:20:43;17.40;71.70
57660;DHT22;43485;45.680;15.702;2023-06-10T04:23:10;17.40;71.50
57660;DHT22;43485;45.680;15.702;2023-06-10T04:25:36;17.50;71.50
57660;DHT22;43485;45.680;15.702;2023-06-10T04:28:02;17.60;71.40
57660;DHT22;43485;45.680;15.702;2023-06-10T04:30:28;17.60;71.50
57660;DHT22;43485;45.680;15.702;2023-06-10T04:32:54;17.70;71.50
57660;DHT22;43485;45.680;15.702;2023-06-10T04:35:20;17.70;71.40
57660;DHT22;43485;45.680;15.702;2023-06-10T04:37:45;17.80;71.40
57660;DHT22;43485;45.680;15.702;2023-06-10T04:40:11;17.80;71.20
57660;DHT22;43485;45.680;15.702;2023-06-10T04:42:37;17.90;71.40
57660;DHT22;43485;45.680;15.702;2023-06-10T04:45:03;17.90;71.50
57660;DHT22;43485;45.680;15.702;2023-06-10T04:47:30;18.00;71.30
57660;DHT22;43485;45.680;15.702;2023-06-10T04:50:14;18.10;71.40
57660;DHT22;43485;45.680;15.702;2023-06-10T04:52:41;18.20;71.30
57660;DHT22;43485;45.680;15.702;2023-06-10T04:55:07;18.20;71.30
57660;DHT22;43485;45.680;15.702;2023-06-10T04:57:34;18.30;71.10
57660;DHT22;43485;45.680;15.702;2023-06-10T05:00:00;18.40;71.30
57660;DHT22;43485;45.680;15.702;2023-06-10T05:02:25;18.50;71.30
57660;DHT22;43485;45.680;15.702;2023-06-10T05:04:51;18.60;71.00
57660;DHT22;43485;45.680;15.702;2023-06-10T05:07:18;18.60;71.30
57660;DHT22;43485;45.680;15.702;2023-06-10T05:09:44;18.70;71.20
57660;DHT22;43485;45.680;15.702;2023-06-10T05:12:13;18.80;71.10
57660;DHT22;43485;45.680;15.702;2023-06-10T05:14:38;18.90;70.90
57660;DHT22;43485;45.680;15.702;2023-06-10T05:17:05;19.00;70.80
57660;DHT22;43485;45.680;15.702;2023-06-10T05:19:31;19.00;70.50
57660;DHT22;43485;45.680;15.702;2023-06-10T05:21:57;19.20;69.60
57660;DHT22;43485;45.680;15.702;2023-06-10T05:24:23;19.30;70.10
57660;DHT22;43485;45.680;15.702;2023-06-10T05:26:49;19.30;70.00
57660;DHT22;43485;45.680;15.702;2023-06-10T05:29:15;19.40;69.80
57660;DHT22;43485;45.680;15.702;2023-06-10T05:31:41;19.60;69.20
57660;DHT22;43485;45.680;15.702;2023-06-10T05:34:07;19.60;69.00
57660;DHT22;43485;45.680;15.702;2023-06-10T05:36:33;19.80;69.70
57660;DHT22;43485;45.680;15.702;2023-06-10T05:38:59;19.80;69.30
57660;DHT22;43485;45.680;15.702;2023-06-10T05:41:25;19.90;69.10
57660;DHT22;43485;45.680;15.702;2023-06-10T05:43:51;19.90;69.00
57660;DHT22;43485;45.680;15.702;2023-06-10T05:46:17;20.10;69.00
57660;DHT22;43485;45.680;15.702;2023-06-10T05:48:43;20.20;68.80
57660;DHT22;43485;45.680;15.702;2023-06-10T05:51:09;20.20;68.50
57660;DHT22;43485;45.680;15.702;2023-06-10T05:53:35;20.40;68.50
57660;DHT22;43485;45.680;15.702;2023-06-10T05:56:01;20.50;68.20
57660;DHT22;43485;45.680;15.702;2023-06-10T05:58:27;20.60;67.90
57660;DHT22;43485;45.680;15.702;2023-06-10T06:00:53;20.70;68.30
57660;DHT22;43485;45.680;15.702;2023-06-10T06:03:19;20.70;68.50
57660;DHT22;43485;45.680;15.702;2023-06-10T06:05:48;20.80;68.60
57660;DHT22;43485;45.680;15.702;2023-06-10T06:08:14;20.90;68.40
57660;DHT22;43485;45.680;15.702;2023-06-10T06:10:42;20.90;68.90
57660;DHT22;43485;45.680;15.702;2023-06-10T06:13:08;20.90;68.90
57660;DHT22;43485;45.680;15.702;2023-06-10T06:15:34;21.10;68.70
57660;DHT22;43485;45.680;15.702;2023-06-10T06:18:00;21.20;68.40
57660;DHT22;43485;45.680;15.702;2023-06-10T06:20:26;21.30;68.50
57660;DHT22;43485;45.680;15.702;2023-06-10T06:22:52;21.40;68.30
57660;DHT22;43485;45.680;15.702;2023-06-10T06:25:18;21.60;68.10
57660;DHT22;43485;45.680;15.702;2023-06-10T06:27:44;21.80;67.50
57660;DHT22;43485;45.680;15.702;2023-06-10T06:30:30;22.10;67.00
57660;DHT22;43485;45.680;15.702;2023-06-10T06:32:56;22.30;66.70
57660;DHT22;43485;45.680;15.702;2023-06-10T06:35:22;22.40;66.40
57660;DHT22;43485;45.680;15.702;2023-06-10T06:37:48;22.60;66.10
57660;DHT22;43485;45.680;15.702;2023-06-10T06:40:13;22.70;65.80
57660;DHT22;43485;45.680;15.702;2023-06-10T06:42:39;22.90;65.30
57660;DHT22;43485;45.680;15.702;2023-06-10T06:45:05;23.00;65.00
57660;DHT22;43485;45.680;15.702;2023-06-10T06:47:32;23.20;64.50
57660;DHT22;43485;45.680;15.702;2023-06-10T06:49:58;23.50;63.90
57660;DHT22;43485;45.680;15.702;2023-06-10T06:52:23;23.50;63.40
57660;DHT22;43485;45.680;15.702;2023-06-10T06:54:49;23.60;63.20
57660;DHT22;43485;45.680;15.702;2023-06-10T06:57:15;23.80;62.70
57660;DHT22;43485;45.680;15.702;2023-06-10T06:59:41;24.00;61.90
57660;DHT22;43485;45.680;15.702;2023-06-10T07:02:07;24.20;60.50
57660;DHT22;43485;45.680;15.702;2023-06-10T07:04:33;24.30;60.20
57660;DHT22;43485;45.680;15.702;2023-06-10T07:06:59;24.50;60.40
57660;DHT22;43485;45.680;15.702;2023-06-10T07:09:25;24.50;59.90
57660;DHT22;43485;45.680;15.702;2023-06-10T07:11:51;24.60;59.70
57660;DHT22;43485;45.680;15.702;2023-06-10T07:14:17;24.80;59.20
57660;DHT22;43485;45.680;15.702;2023-06-10T07:16:43;24.90;58.40
57660;DHT22;43485;45.680;15.702;2023-06-10T07:19:10;25.00;57.90
57660;DHT22;43485;45.680;15.702;2023-06-10T07:21:36;25.00;57.50
57660;DHT22;43485;45.680;15.702;2023-06-10T07:24:03;25.00;57.50
57660;DHT22;43485;45.680;15.702;2023-06-10T07:26:29;25.00;57.00
57660;DHT22;43485;45.680;15.702;2023-06-10T07:28:55;25.10;56.80
57660;DHT22;43485;45.680;15.702;2023-06-10T07:31:21;25.20;56.60
57660;DHT22;43485;45.680;15.702;2023-06-10T07:33:48;25.30;56.30
57660;DHT22;43485;45.680;15.702;2023-06-10T07:36:14;25.40;55.80
57660;DHT22;43485;45.680;15.702;2023-06-10T07:38:40;25.50;55.50
57660;DHT22;43485;45.680;15.702;2023-06-10T07:41:07;25.80;55.00
57660;DHT22;43485;45.680;15.702;2023-06-10T07:43:34;25.80;53.90
57660;DHT22;43485;45.680;15.702;2023-06-10T07:46:00;26.00;54.00
57660;DHT22;43485;45.680;15.702;2023-06-10T07:48:26;26.00;53.80
57660;DHT22;43485;45.680;15.702;2023-06-10T07:50:52;26.00;53.40
57660;DHT22;43485;45.680;15.702;2023-06-10T07:53:17;25.90;52.70
57660;DHT22;43485;45.680;15.702;2023-06-10T07:55:43;26.00;53.70
57660;DHT22;43485;45.680;15.702;2023-06-10T07:58:09;26.20;53.40
57660;DHT22;43485;45.680;15.702;2023-06-10T08:00:35;26.40;53.10
57660;DHT22;43485;45.680;15.702;2023-06-10T08:03:01;26.40;52.30
57660;DHT22;43485;45.680;15.702;2023-06-10T08:05:27;26.70;51.70
57660;DHT22;43485;45.680;15.702;2023-06-10T08:08:02;26.80;51.50
57660;DHT22;43485;45.680;15.702;2023-06-10T08:10:28;27.00;51.30
57660;DHT22;43485;45.680;15.702;2023-06-10T08:12:54;27.10;51.30
57660;DHT22;43485;45.680;15.702;2023-06-10T08:15:20;27.20;51.00
57660;DHT22;43485;45.680;15.702;2023-06-10T08:17:46;27.20;51.00
57660;DHT22;43485;45.680;15.702;2023-06-10T08:20:12;27.30;50.80
57660;DHT22;43485;45.680;15.702;2023-06-10T08:22:38;27.40;50.20
57660;DHT22;43485;45.680;15.702;2023-06-10T08:25:04;27.70;49.70
57660;DHT22;43485;45.680;15.702;2023-06-10T08:27:31;27.80;49.10
57660;DHT22;43485;45.680;15.702;2023-06-10T08:29:57;27.90;49.00
57660;DHT22;43485;45.680;15.702;2023-06-10T08:32:26;28.20;49.10
57660;DHT22;43485;45.680;15.702;2023-06-10T08:34:51;28.40;47.60
57660;DHT22;43485;45.680;15.702;2023-06-10T08:37:17;28.70;47.90
57660;DHT22;43485;45.680;15.702;2023-06-10T08:39:43;28.90;46.90
57660;DHT22;43485;45.680;15.702;2023-06-10T08:44:58;29.00;45.40
57660;DHT22;43485;45.680;15.702;2023-06-10T08:47:26;28.80;44.80
57660;DHT22;43485;45.680;15.702;2023-06-10T08:49:56;28.70;45.30
57660;DHT22;43485;45.680;15.702;2023-06-10T08:52:26;28.80;46.00
57660;DHT22;43485;45.680;15.702;2023-06-10T08:57:41;28.80;44.90
57660;DHT22;43485;45.680;15.702;2023-06-10T09:00:08;28.80;45.70
57660;DHT22;43485;45.680;15.702;2023-06-10T09:02:34;28.80;45.70
57660;DHT22;43485;45.680;15.702;2023-06-10T09:05:03;28.80;45.80
57660;DHT22;43485;45.680;15.702;2023-06-10T09:07:30;28.80;45.40
57660;DHT22;43485;45.680;15.702;2023-06-10T09:09:57;28.80;44.50
57660;DHT22;43485;45.680;15.702;2023-06-10T09:12:23;28.80;45.10
57660;DHT22;43485;45.680;15.702;2023-06-10T09:14:49;28.90;45.40
57660;DHT22;43485;45.680;15.702;2023-06-10T09:20:34;29.00;45.80
57660;DHT22;43485;45.680;15.702;2023-06-10T09:23:01;29.10;45.20
57660;DHT22;43485;45.680;15.702;2023-06-10T09:39:21;30.30;43.60
57660;DHT22;43485;45.680;15.702;2023-06-10T09:44:51;30.40;42.20
57660;DHT22;43485;45.680;15.702;2023-06-10T09:50:02;30.90;41.50
57660;DHT22;43485;45.680;15.702;2023-06-10T09:52:38;32.20;39.30
57660;DHT22;43485;45.680;15.702;2023-06-10T09:55:04;33.50;37.20
57660;DHT22;43485;45.680;15.702;2023-06-10T09:57:39;34.50;35.80
57660;DHT22;43485;45.680;15.702;2023-06-10T10:00:27;35.30;34.70
57660;DHT22;43485;45.680;15.702;2023-06-10T10:03:08;36.10;32.50
57660;DHT22;43485;45.680;15.702;2023-06-10T10:05:57;36.60;32.10
57660;DHT22;43485;45.680;15.702;2023-06-10T10:08:25;37.20;30.70
57660;DHT22;43485;45.680;15.702;2023-06-10T10:10:51;37.50;29.30
57660;DHT22;43485;45.680;15.702;2023-06-10T10:17:00;36.30;30.90
57660;DHT22;43485;45.680;15.702;2023-06-10T10:19:31;37.40;29.90
57660;DHT22;43485;45.680;15.702;2023-06-10T10:22:04;38.50;28.50
57660;DHT22;43485;45.680;15.702;2023-06-10T10:24:50;39.30;26.20
57660;DHT22;43485;45.680;15.702;2023-06-10T10:30:20;38.20;27.70
57660;DHT22;43485;45.680;15.702;2023-06-10T10:35:59;40.10;26.80
57660;DHT22;43485;45.680;15.702;2023-06-10T10:38:26;41.00;25.50
57660;DHT22;43485;45.680;15.702;2023-06-10T10:43:56;42.50;23.30
57660;DHT22;43485;45.680;15.702;2023-06-10T10:46:23;42.10;23.30
57660;DHT22;43485;45.680;15.702;2023-06-10T10:48:52;41.90;23.40
57660;DHT22;43485;45.680;15.702;2023-06-10T10:51:19;41.70;22.90
57660;DHT22;43485;45.680;15.702;2023-06-10T11:14:54;43.70;20.50
57660;DHT22;43485;45.680;15.702;2023-06-10T11:17:30;42.00;21.70
57660;DHT22;43485;45.680;15.702;2023-06-10T11:19:55;40.90;22.20
57660;DHT22;43485;45.680;15.702;2023-06-10T11:22:24;40.90;21.90
57660;DHT22;43485;45.680;15.702;2023-06-10T11:24:56;40.10;23.10
57660;DHT22;43485;45.680;15.702;2023-06-10T11:27:24;40.20;23.40
57660;DHT22;43485;45.680;15.702;2023-06-10T11:33:03;41.00;23.00
57660;DHT22;43485;45.680;15.702;2023-06-10T11:35:30;40.20;23.50
57660;DHT22;43485;45.680;15.702;2023-06-10T11:38:02;40.20;23.50
57660;DHT22;43485;45.680;15.702;2023-06-10T11:46:48;37.70;24.50
57660;DHT22;43485;45.680;15.702;2023-06-10T11:49:15;36.90;25.20
57660;DHT22;43485;45.680;15.702;2023-06-10T11:51:41;36.40;26.10
57660;DHT22;43485;45.680;15.702;2023-06-10T11:54:23;35.90;26.90
57660;DHT22;43485;45.680;15.702;2023-06-10T11:57:07;37.00;26.60
57660;DHT22;43485;45.680;15.702;2023-06-10T11:59:33;39.40;25.50
57660;DHT22;43485;45.680;15.702;2023-06-10T12:02:14;41.10;24.10
57660;DHT22;43485;45.680;15.702;2023-06-10T12:04:41;42.50;21.60
57660;DHT22;43485;45.680;15.702;2023-06-10T12:07:07;43.00;20.30
57660;DHT22;43485;45.680;15.702;2023-06-10T12:09:33;42.50;21.70
57660;DHT22;43485;45.680;15.702;2023-06-10T12:12:11;43.70;21.20
57660;DHT22;43485;45.680;15.702;2023-06-10T12:14:59;42.90;20.70
57660;DHT22;43485;45.680;15.702;2023-06-10T12:18:06;41.90;21.80
57660;DHT22;43485;45.680;15.702;2023-06-10T12:23:29;44.50;20.60
57660;DHT22;43485;45.680;15.702;2023-06-10T12:25:55;45.70;19.70
57660;DHT22;43485;45.680;15.702;2023-06-10T12:28:21;46.30;18.80
57660;DHT22;43485;45.680;15.702;2023-06-10T12:31:08;46.70;18.80
57660;DHT22;43485;45.680;15.702;2023-06-10T12:33:34;45.20;19.40
57660;DHT22;43485;45.680;15.702;2023-06-10T12:36:06;43.40;19.70
57660;DHT22;43485;45.680;15.702;2023-06-10T12:39:12;41.60;21.20
57660;DHT22;43485;45.680;15.702;2023-06-10T12:41:38;40.30;22.00
57660;DHT22;43485;45.680;15.702;2023-06-10T12:44:05;39.50;22.80
57660;DHT22;43485;45.680;15.702;2023-06-10T12:46:53;38.90;23.70
57660;DHT22;43485;45.680;15.702;2023-06-10T12:49:20;38.10;24.40
57660;DHT22;43485;45.680;15.702;2023-06-10T12:54:31;37.00;25.70
57660;DHT22;43485;45.680;15.702;2023-06-10T12:56:58;36.50;25.80
57660;DHT22;43485;45.680;15.702;2023-06-10T12:59:24;36.10;26.40
57660;DHT22;43485;45.680;15.702;2023-06-10T13:01:53;35.70;27.20
57660;DHT22;43485;45.680;15.702;2023-06-10T13:04:20;35.30;27.60
57660;DHT22;43485;45.680;15.702;2023-06-10T13:07:02;34.90;27.50
57660;DHT22;43485;45.680;15.702;2023-06-10T13:09:28;34.70;28.10
57660;DHT22;43485;45.680;15.702;2023-06-10T13:11:53;34.70;29.00
57660;DHT22;43485;45.680;15.702;2023-06-10T13:14:35;34.50;29.30
57660;DHT22;43485;45.680;15.702;2023-06-10T13:20:00;34.20;29.60
57660;DHT22;43485;45.680;15.702;2023-06-10T13:25:14;34.50;29.00
57660;DHT22;43485;45.680;15.702;2023-06-10T13:27:58;34.50;28.40
57660;DHT22;43485;45.680;15.702;2023-06-10T13:30:36;34.40;29.00
57660;DHT22;43485;45.680;15.702;2023-06-10T13:33:02;34.20;29.50
57660;DHT22;43485;45.680;15.702;2023-06-10T13:35:37;33.90;29.60
57660;DHT22;43485;45.680;15.702;2023-06-10T13:38:18;33.60;29.90
57660;DHT22;43485;45.680;15.702;2023-06-10T13:40:47;33.40;30.60
57660;DHT22;43485;45.680;15.702;2023-06-10T13:43:13;33.20;31.20
57660;DHT22;43485;45.680;15.702;2023-06-10T13:45:55;33.10;31.80
57660;DHT22;43485;45.680;15.702;2023-06-10T13:48:21;32.90;31.70
57660;DHT22;43485;45.680;15.702;2023-06-10T13:50:47;32.80;32.10
57660;DHT22;43485;45.680;15.702;2023-06-10T13:53:19;32.70;32.30
57660;DHT22;43485;45.680;15.702;2023-06-10T13:56:01;32.60;32.70
57660;DHT22;43485;45.680;15.702;2023-06-10T13:58:42;32.40;32.70
57660;DHT22;43485;45.680;15.702;2023-06-10T14:01:08;32.20;33.40
57660;DHT22;43485;45.680;15.702;2023-06-10T14:03:34;32.00;34.60
57660;DHT22;43485;45.680;15.702;2023-06-10T14:06:00;31.90;34.10
57660;DHT22;43485;45.680;15.702;2023-06-10T14:08:27;31.80;34.30
57660;DHT22;43485;45.680;15.702;2023-06-10T14:10:53;31.60;34.60
57660;DHT22;43485;45.680;15.702;2023-06-10T14:13:19;31.30;35.40
57660;DHT22;43485;45.680;15.702;2023-06-10T14:15:44;31.10;35.30
57660;DHT22;43485;45.680;15.702;2023-06-10T14:18:12;31.00;35.50
57660;DHT22;43485;45.680;15.702;2023-06-10T14:20:41;30.80;34.90
57660;DHT22;43485;45.680;15.702;2023-06-10T14:23:16;30.60;35.90
57660;DHT22;43485;45.680;15.702;2023-06-10T14:29:01;30.40;36.60
57660;DHT22;43485;45.680;15.702;2023-06-10T14:31:40;30.30;37.10
57660;DHT22;43485;45.680;15.702;2023-06-10T14:34:06;30.20;37.30
57660;DHT22;43485;45.680;15.702;2023-06-10T14:36:35;30.20;37.40
57660;DHT22;43485;45.680;15.702;2023-06-10T14:39:02;30.10;37.80
57660;DHT22;43485;45.680;15.702;2023-06-10T14:41:28;30.10;38.60
57660;DHT22;43485;45.680;15.702;2023-06-10T14:43:54;30.00;38.60
57660;DHT22;43485;45.680;15.702;2023-06-10T14:46:20;30.00;37.70
57660;DHT22;43485;45.680;15.702;2023-06-10T14:48:47;30.00;38.00
57660;DHT22;43485;45.680;15.702;2023-06-10T14:51:13;29.90;37.80
57660;DHT22;43485;45.680;15.702;2023-06-10T14:53:38;29.80;38.40
57660;DHT22;43485;45.680;15.702;2023-06-10T14:56:11;29.70;38.40
57660;DHT22;43485;45.680;15.702;2023-06-10T14:58:55;29.70;38.50
57660;DHT22;43485;45.680;15.702;2023-06-10T15:01:21;29.60;38.80
57660;DHT22;43485;45.680;15.702;2023-06-10T15:03:52;29.50;39.30
57660;DHT22;43485;45.680;15.702;2023-06-10T15:06:37;29.30;40.00
57660;DHT22;43485;45.680;15.702;2023-06-10T15:09:03;29.10;40.80
57660;DHT22;43485;45.680;15.702;2023-06-10T15:11:48;29.00;41.80
57660;DHT22;43485;45.680;15.702;2023-06-10T15:14:14;28.80;41.50
57660;DHT22;43485;45.680;15.702;2023-06-10T15:19:28;28.80;42.30
57660;DHT22;43485;45.680;15.702;2023-06-10T15:21:54;28.70;42.20
57660;DHT22;43485;45.680;15.702;2023-06-10T15:24:20;28.70;42.40
57660;DHT22;43485;45.680;15.702;2023-06-10T15:26:52;28.60;42.50
57660;DHT22;43485;45.680;15.702;2023-06-10T15:29:18;28.50;42.80
57660;DHT22;43485;45.680;15.702;2023-06-10T15:31:47;28.60;42.70
57660;DHT22;43485;45.680;15.702;2023-06-10T15:34:12;28.60;42.30
57660;DHT22;43485;45.680;15.702;2023-06-10T15:39:26;28.80;42.20
57660;DHT22;43485;45.680;15.702;2023-06-10T15:42:11;28.80;41.70
57660;DHT22;43485;45.680;15.702;2023-06-10T15:44:52;28.80;41.30
57660;DHT22;43485;45.680;15.702;2023-06-10T15:47:19;28.70;41.40
57660;DHT22;43485;45.680;15.702;2023-06-10T15:50:25;28.70;41.50
57660;DHT22;43485;45.680;15.702;2023-06-10T15:53:10;28.60;41.80
57660;DHT22;43485;45.680;15.702;2023-06-10T15:55:36;28.50;41.90
57660;DHT22;43485;45.680;15.702;2023-06-10T15:58:05;28.40;42.20
57660;DHT22;43485;45.680;15.702;2023-06-10T16:00:31;28.30;42.50
57660;DHT22;43485;45.680;15.702;2023-06-10T16:02:57;28.20;42.20
57660;DHT22;43485;45.680;15.702;2023-06-10T16:11:19;28.00;43.20
57660;DHT22;43485;45.680;15.702;2023-06-10T16:13:46;28.10;43.40
57660;DHT22;43485;45.680;15.702;2023-06-10T16:16:12;28.20;43.40
57660;DHT22;43485;45.680;15.702;2023-06-10T16:18:38;28.20;43.20
57660;DHT22;43485;45.680;15.702;2023-06-10T16:21:07;28.30;43.20
57660;DHT22;43485;45.680;15.702;2023-06-10T16:23:32;28.30;43.30
57660;DHT22;43485;45.680;15.702;2023-06-10T16:25:58;28.20;43.50
57660;DHT22;43485;45.680;15.702;2023-06-10T16:28:24;28.10;44.00
57660;DHT22;43485;45.680;15.702;2023-06-10T16:33:53;27.80;44.20
57660;DHT22;43485;45.680;15.702;2023-06-10T16:39:23;27.40;45.30
57660;DHT22;43485;45.680;15.702;2023-06-10T16:41:49;27.30;45.70
57660;DHT22;43485;45.680;15.702;2023-06-10T16:44:24;27.20;46.00
57660;DHT22;43485;45.680;15.702;2023-06-10T16:46:51;27.00;46.20
57660;DHT22;43485;45.680;15.702;2023-06-10T16:49:29;26.90;46.10
57660;DHT22;43485;45.680;15.702;2023-06-10T16:51:58;26.70;46.10
57660;DHT22;43485;45.680;15.702;2023-06-10T16:57:30;26.60;46.40
57660;DHT22;43485;45.680;15.702;2023-06-10T16:59:56;26.40;46.70
57660;DHT22;43485;45.680;15.702;2023-06-10T17:02:22;26.30;47.00
57660;DHT22;43485;45.680;15.702;2023-06-10T17:04:48;26.20;47.30
57660;DHT22;43485;45.680;15.702;2023-06-10T17:07:14;26.10;47.30
57660;DHT22;43485;45.680;15.702;2023-06-10T17:09:43;26.10;47.60
57660;DHT22;43485;45.680;15.702;2023-06-10T17:12:09;26.10;47.50
57660;DHT22;43485;45.680;15.702;2023-06-10T17:14:35;26.00;47.10
57660;DHT22;43485;45.680;15.702;2023-06-10T17:17:01;26.00;47.70
57660;DHT22;43485;45.680;15.702;2023-06-10T17:19:30;26.00;48.10
57660;DHT22;43485;45.680;15.702;2023-06-10T17:24:48;26.00;48.00
57660;DHT22;43485;45.680;15.702;2023-06-10T17:30:06;25.50;48.50
57660;DHT22;43485;45.680;15.702;2023-06-10T17:32:44;25.40;48.80